Time;durP1;ratioP1;P1;durP2;ratioP2;P2;SDS_P1;SDS_P2;PMS_P1;PMS_P2;Temp;Humidity;BMP_temperature;BMP_pressure;BME280_temperature;BME280_humidity;BME280_pressure;Samples;Min_cycle;Max_cycle;Signal;HPM_P1;HPM_P2
2022/12/07 00:01:28;;;;;;;23.63;9.82;;;3.20;99.90;;;;;;5072942;28;20098;-61
2022/12/07 00:04:05;;;;;;;18.65;8.98;;;3.20;99.90;;;;;;5072401;28;20033;-60
2022/12/07 00:06:37;;;;;;;23.45;9.90;;;3.30;99.90;;;;;;5072720;28;20504;-60
2022/12/07 00:09:05;;;;;;;17.73;8.40;;;3.30;99.90;;;;;;5073294;28;20165;-61
2022/12/07 00:11:33;;;;;;;18.77;8.77;;;3.20;99.90;;;;;;5072573;28;20524;-61
2022/12/07 00:14:03;;;;;;;24.40;8.63;;;3.20;99.90;;;;;;5072444;28;20433;-61
2022/12/07 00:16:32;;;;;;;20.45;8.15;;;3.20;99.90;;;;;;5072685;28;20068;-61
2022/12/07 00:18:59;;;;;;;19.92;8.82;;;3.30;99.90;;;;;;5073166;28;20072;-61
2022/12/07 00:21:29;;;;;;;;;;;3.30;99.90;;;;;;5072200;28;20082;-60
2022/12/07 00:23:56;;;;;;;17.02;7.10;;;3.30;99.90;;;;;;5072916;28;20331;-60
2022/12/07 00:26:35;;;;;;;15.57;6.93;;;3.30;99.90;;;;;;5072574;28;20071;-60
2022/12/07 00:29:06;;;;;;;15.60;8.02;;;3.30;99.90;;;;;;5072735;28;20405;-61
2022/12/07 00:31:38;;;;;;;16.95;8.23;;;3.30;99.90;;;;;;5071723;28;20102;-61
2022/12/07 00:34:07;;;;;;;15.75;8.00;;;3.20;99.90;;;;;;5072454;28;20059;-61
2022/12/07 00:36:34;;;;;;;18.23;8.63;;;3.20;99.90;;;;;;5072242;28;20059;-61
2022/12/07 00:39:02;;;;;;;16.65;6.72;;;3.10;99.90;;;;;;5072002;28;20048;-61
2022/12/07 00:41:29;;;;;;;16.48;8.43;;;3.00;99.90;;;;;;5071949;28;20032;-60
2022/12/07 00:43:57;;;;;;;20.27;9.15;;;3.00;99.90;;;;;;5065437;28;20533;-61
2022/12/07 00:46:25;;;;;;;18.13;9.18;;;3.00;99.90;;;;;;5072541;28;20594;-61
2022/12/07 00:48:53;;;;;;;17.50;9.10;;;3.00;99.90;;;;;;5071829;28;20051;-61
2022/12/07 00:51:22;;;;;;;17.35;9.05;;;3.00;99.90;;;;;;5072018;28;20045;-61
2022/12/07 00:53:49;;;;;;;27.33;9.25;;;3.00;99.90;;;;;;5072006;28;20071;-61
2022/12/07 00:56:21;;;;;;;18.90;8.98;;;3.00;99.90;;;;;;5070536;28;20045;-61
2022/12/07 00:58:56;;;;;;;17.08;9.15;;;3.00;99.90;;;;;;5072119;28;20044;-61
2022/12/07 01:01:25;;;;;;;19.42;9.75;;;3.00;99.90;;;;;;5063909;28;20075;-61
2022/12/07 01:03:52;;;;;;;18.20;9.00;;;3.10;99.90;;;;;;5072035;28;20635;-61
2022/12/07 01:06:21;;;;;;;16.75;8.63;;;3.00;99.90;;;;;;5070980;28;20443;-61
2022/12/07 01:08:48;;;;;;;19.20;8.77;;;3.00;99.90;;;;;;5071951;28;20044;-61
2022/12/07 01:11:17;;;;;;;18.88;9.10;;;3.10;99.90;;;;;;5072008;28;20079;-60
2022/12/07 01:13:45;;;;;;;15.48;8.13;;;3.10;99.90;;;;;;5071492;28;20106;-61
2022/12/07 01:16:14;;;;;;;16.67;8.15;;;3.10;99.90;;;;;;5063544;28;20110;-61
2022/12/07 01:18:41;;;;;;;17.00;8.25;;;3.10;99.90;;;;;;5070909;28;20119;-60
2022/12/07 01:21:16;;;;;;;17.67;8.45;;;3.10;99.90;;;;;;5071128;28;20140;-61
2022/12/07 01:23:44;;;;;;;15.00;8.15;;;3.10;99.90;;;;;;5070778;28;20072;-60
2022/12/07 01:26:13;;;;;;;18.63;8.05;;;3.10;99.90;;;;;;5069306;28;20036;-61
2022/12/07 01:28:40;;;;;;;27.42;11.40;;;3.10;99.90;;;;;;5066389;28;20060;-60
2022/12/07 01:31:16;;;;;;;24.40;9.45;;;3.10;99.90;;;;;;5071899;28;20080;-61
2022/12/07 01:33:45;;;;;;;31.75;11.40;;;3.10;99.90;;;;;;5071519;28;20086;-61
2022/12/07 01:36:18;;;;;;;25.33;10.38;;;3.10;99.90;;;;;;5069009;28;20127;-62
2022/12/07 01:38:46;;;;;;;24.20;9.93;;;3.10;99.90;;;;;;5071517;28;20102;-61
2022/12/07 01:41:13;;;;;;;19.48;10.20;;;3.10;99.90;;;;;;5070447;28;20044;-61
2022/12/07 01:44:17;;;;;;;19.73;9.55;;;3.10;99.90;;;;;;5071504;28;20064;-61
2022/12/07 01:46:47;;;;;;;19.23;8.98;;;3.20;99.90;;;;;;5070517;28;20520;-61
2022/12/07 01:49:38;;;;;;;23.52;8.82;;;3.20;99.90;;;;;;5071601;28;20097;-61
2022/12/07 01:52:29;;;;;;;17.40;8.30;;;3.20;99.90;;;;;;5069575;28;20040;-61
2022/12/07 01:55:11;;;;;;;25.95;9.95;;;3.20;99.90;;;;;;5068099;28;20068;-61
2022/12/07 01:57:48;;;;;;;21.88;10.27;;;3.20;99.90;;;;;;5070561;28;20131;-61
2022/12/07 02:00:16;;;;;;;22.67;9.60;;;3.20;99.90;;;;;;5067819;28;20503;-61
2022/12/07 02:03:09;;;;;;;21.00;8.65;;;3.20;99.90;;;;;;5065622;28;20068;-61
2022/12/07 02:05:38;;;;;;;19.15;8.88;;;3.10;99.90;;;;;;5071405;28;20072;-61
2022/12/07 02:08:04;;;;;;;18.98;9.05;;;3.10;99.90;;;;;;5079164;22;20049;-58
2022/12/07 02:10:32;;;;;;;20.15;8.85;;;3.00;99.90;;;;;;5066922;28;20054;-57
2022/12/07 02:13:05;;;;;;;22.15;8.40;;;3.00;99.90;;;;;;5091129;28;20044;-57
2022/12/07 02:15:58;;;;;;;16.58;9.00;;;3.10;99.90;;;;;;5090535;28;20048;-56
2022/12/07 02:18:43;;;;;;;18.20;9.10;;;3.10;99.90;;;;;;5077527;28;20142;-60
2022/12/07 02:21:16;;;;;;;18.27;9.77;;;3.10;99.90;;;;;;5108546;28;20040;-59
2022/12/07 02:24:13;;;;;;;20.25;8.70;;;3.00;99.90;;;;;;5111433;28;20101;-59
2022/12/07 02:27:03;;;;;;;17.55;8.55;;;3.10;99.90;;;;;;5110716;28;20043;-59
2022/12/07 02:30:02;;;;;;;18.13;8.18;;;3.10;99.90;;;;;;5097071;28;20122;-56
2022/12/07 02:32:39;;;;;;;20.90;9.23;;;3.00;99.90;;;;;;5111192;28;20059;-58
2022/12/07 02:35:11;;;;;;;19.20;8.70;;;3.00;99.90;;;;;;5111968;28;20067;-57
2022/12/07 02:37:41;;;;;;;15.73;9.10;;;3.00;99.90;;;;;;5094478;28;20055;-59
2022/12/07 02:40:33;;;;;;;17.77;8.27;;;3.00;99.90;;;;;;5082998;28;20068;-57
2022/12/07 02:43:06;;;;;;;17.52;8.63;;;3.00;99.90;;;;;;5090971;28;20044;-58
2022/12/07 02:45:36;;;;;;;20.55;9.30;;;3.00;99.90;;;;;;5091419;28;20044;-58
2022/12/07 02:48:05;;;;;;;17.85;9.18;;;3.00;99.90;;;;;;5081188;28;20539;-57
2022/12/07 02:50:31;;;;;;;21.80;9.40;;;3.00;99.90;;;;;;5085624;28;20031;-57
2022/12/07 02:52:58;;;;;;;19.15;9.35;;;3.00;99.90;;;;;;5111037;28;20665;-57
2022/12/07 02:55:35;;;;;;;22.33;9.07;;;3.00;99.90;;;;;;5111528;28;20044;-58
2022/12/07 02:58:32;;;;;;;17.52;8.85;;;3.00;99.90;;;;;;5111537;28;20043;-59
2022/12/07 03:01:38;;;;;;;24.63;9.38;;;3.00;99.90;;;;;;5089936;28;20071;-59
2022/12/07 03:04:16;;;;;;;19.40;8.85;;;3.00;99.90;;;;;;5087298;28;20072;-55
2022/12/07 03:06:51;;;;;;;17.67;8.88;;;3.00;99.90;;;;;;5091304;28;20064;-56
2022/12/07 03:09:28;;;;;;;15.75;8.20;;;3.00;99.90;;;;;;5080290;28;20045;-59
2022/12/07 03:12:06;;;;;;;17.77;9.07;;;3.10;99.90;;;;;;5087423;28;20097;-59
2022/12/07 03:14:41;;;;;;;22.00;8.93;;;3.10;99.90;;;;;;5091139;28;20036;-59
2022/12/07 03:17:20;;;;;;;17.15;8.55;;;3.00;99.90;;;;;;5088773;28;20072;-57
2022/12/07 03:19:49;;;;;;;22.00;9.85;;;3.10;99.90;;;;;;5085859;28;20036;-58
2022/12/07 03:22:17;;;;;;;24.17;10.15;;;3.10;99.90;;;;;;5104349;28;20044;-58
2022/12/07 03:24:53;;;;;;;22.33;10.05;;;3.10;99.90;;;;;;5113574;28;20536;-58
2022/12/07 03:27:28;;;;;;;24.75;11.57;;;3.10;99.90;;;;;;5089291;28;20056;-59
2022/12/07 03:30:04;;;;;;;22.30;10.98;;;3.00;99.90;;;;;;5091163;28;20080;-59
2022/12/07 03:32:39;;;;;;;20.77;10.73;;;3.10;99.90;;;;;;5094433;28;20127;-57
2022/12/07 03:35:21;;;;;;;23.30;10.05;;;3.10;99.90;;;;;;5096207;28;20048;-59
2022/12/07 03:38:31;;;;;;;18.35;9.70;;;3.10;99.90;;;;;;5078823;28;20468;-58
2022/12/07 03:41:24;;;;;;;18.98;8.98;;;3.10;99.90;;;;;;5085618;28;20099;-59
2022/12/07 03:43:53;;;;;;;20.40;9.32;;;3.10;99.90;;;;;;5093755;28;20090;-58
2022/12/07 03:46:49;;;;;;;20.35;9.77;;;3.10;99.90;;;;;;5077627;28;20130;-59
2022/12/07 03:49:21;;;;;;;14.95;8.68;;;3.10;99.90;;;;;;5093075;28;20044;-59
2022/12/07 03:52:12;;;;;;;20.50;9.82;;;3.10;99.90;;;;;;5104693;28;20100;-58
2022/12/07 03:55:15;;;;;;;16.05;8.80;;;3.20;99.90;;;;;;5114401;28;20051;-58
2022/12/07 03:57:44;;;;;;;15.65;8.30;;;3.10;99.90;;;;;;5114694;28;20043;-57
2022/12/07 04:00:12;;;;;;;19.58;10.00;;;3.10;99.90;;;;;;5084252;28;20036;-58
2022/12/07 04:02:40;;;;;;;22.80;9.30;;;3.10;99.90;;;;;;5087780;28;20040;-58
2022/12/07 04:05:08;;;;;;;18.38;9.88;;;3.10;99.90;;;;;;5094034;28;20082;-59
2022/12/07 04:07:35;;;;;;;18.38;9.43;;;3.00;99.90;;;;;;5089247;28;20097;-59
2022/12/07 04:10:03;;;;;;;18.55;9.85;;;3.00;99.90;;;;;;5085463;28;20040;-58
2022/12/07 04:12:30;;;;;;;16.92;8.68;;;3.00;99.90;;;;;;5091962;28;20044;-58
2022/12/07 04:14:57;;;;;;;18.25;9.18;;;3.00;99.90;;;;;;5107019;28;20051;-58
2022/12/07 04:17:24;;;;;;;19.42;9.10;;;3.00;99.90;;;;;;5114037;28;20039;-59
2022/12/07 04:19:50;;;;;;;13.38;6.85;;;3.00;99.90;;;;;;5090686;28;20155;-58
2022/12/07 04:22:17;;;;;;;18.98;8.52;;;3.00;99.90;;;;;;5105455;28;20080;-58
2022/12/07 04:24:44;;;;;;;21.00;8.85;;;3.00;99.90;;;;;;5102027;28;20382;-56
2022/12/07 04:27:11;;;;;;;15.20;7.35;;;3.00;99.90;;;;;;5091231;28;20040;-58
2022/12/07 04:29:37;;;;;;;14.57;6.65;;;3.00;99.90;;;;;;5086672;28;20044;-59
2022/12/07 04:32:04;;;;;;;17.42;8.30;;;3.00;99.90;;;;;;5089157;28;20040;-57
2022/12/07 04:34:31;;;;;;;16.63;8.60;;;2.90;99.90;;;;;;5092991;28;20040;-59
2022/12/07 04:36:58;;;;;;;17.55;9.43;;;2.90;99.90;;;;;;5081012;28;20052;-58
2022/12/07 04:39:27;;;;;;;17.70;8.63;;;2.90;99.90;;;;;;5103669;28;20051;-58
2022/12/07 04:41:55;;;;;;;23.95;10.65;;;3.00;99.90;;;;;;5092538;28;20068;-58
2022/12/07 04:44:23;;;;;;;21.48;9.95;;;2.90;99.90;;;;;;5098571;28;20077;-58
2022/12/07 04:46:51;;;;;;;20.27;9.65;;;2.90;99.90;;;;;;5106191;28;20080;-59
2022/12/07 04:49:18;;;;;;;25.35;11.30;;;2.90;99.90;;;;;;5110050;28;20075;-58
2022/12/07 04:51:45;;;;;;;18.50;9.05;;;2.90;99.90;;;;;;5092644;28;20048;-58
2022/12/07 04:54:13;;;;;;;15.60;8.68;;;2.90;99.90;;;;;;5082335;28;20461;-59
2022/12/07 04:56:40;;;;;;;19.50;9.60;;;2.90;99.90;;;;;;5086742;28;20101;-58
2022/12/07 04:59:08;;;;;;;19.58;9.32;;;2.90;99.90;;;;;;5090749;28;20504;-58
2022/12/07 05:01:35;;;;;;;18.35;9.50;;;2.90;99.90;;;;;;5104463;28;20036;-58
2022/12/07 05:04:02;;;;;;;23.23;10.82;;;2.90;99.90;;;;;;5112897;28;20043;-57
2022/12/07 05:06:29;;;;;;;26.23;11.00;;;2.90;99.90;;;;;;5100552;28;20044;-58
2022/12/07 05:08:56;;;;;;;19.17;7.88;;;2.90;99.90;;;;;;5088924;28;20489;-59
2022/12/07 05:11:38;;;;;;;22.60;8.52;;;2.90;99.90;;;;;;5080754;28;20071;-59
2022/12/07 05:14:14;;;;;;;21.67;11.85;;;2.90;99.90;;;;;;5072455;28;20441;-58
2022/12/07 05:16:42;;;;;;;26.25;11.93;;;2.90;99.90;;;;;;5085391;28;20040;-59
2022/12/07 05:19:10;;;;;;;19.27;10.15;;;2.90;99.90;;;;;;5086943;28;20093;-58
2022/12/07 05:21:37;;;;;;;31.90;10.73;;;3.00;99.90;;;;;;5085821;28;20078;-59
2022/12/07 05:24:05;;;;;;;21.08;10.25;;;3.00;99.90;;;;;;5084918;28;20388;-59
2022/12/07 05:26:32;;;;;;;26.27;12.07;;;3.00;99.90;;;;;;5101368;28;20035;-58
2022/12/07 05:28:59;;;;;;;27.13;12.50;;;3.00;99.90;;;;;;5111613;28;20105;-59
2022/12/07 05:31:27;;;;;;;28.70;13.00;;;3.00;99.90;;;;;;5098004;28;20066;-59
2022/12/07 05:33:54;;;;;;;25.98;13.10;;;3.00;99.90;;;;;;5112355;28;20040;-58
2022/12/07 05:36:21;;;;;;;24.75;12.05;;;3.10;99.90;;;;;;5102700;28;20058;-59
2022/12/07 05:38:48;;;;;;;23.70;11.27;;;3.10;99.90;;;;;;5112368;28;20427;-59
2022/12/07 05:44:03;;;;;;;21.13;10.27;;;3.00;99.90;;;;;;5111694;28;20071;-59
2022/12/07 05:46:30;;;;;;;20.65;10.20;;;3.00;99.90;;;;;;5099048;28;20079;-58
2022/12/07 05:48:57;;;;;;;14.10;7.97;;;3.00;99.90;;;;;;5096161;28;20075;-59
2022/12/07 05:51:23;;;;;;;14.10;7.45;;;3.00;99.90;;;;;;5104428;28;20039;-59
2022/12/07 05:53:50;;;;;;;24.52;10.20;;;3.00;99.90;;;;;;5090357;28;20089;-59
2022/12/07 05:56:17;;;;;;;21.02;8.98;;;3.00;99.90;;;;;;5085481;28;20455;-59
2022/12/07 06:01:29;;;;;;;22.42;10.60;;;3.00;99.90;;;;;;5078331;28;20057;-58
2022/12/07 06:03:55;;;;;;;16.70;7.60;;;3.00;99.90;;;;;;5111757;28;20046;-57
2022/12/07 06:06:22;;;;;;;27.73;13.13;;;3.10;99.90;;;;;;5099292;28;20044;-59
2022/12/07 06:08:49;;;;;;;30.55;14.32;;;3.10;99.90;;;;;;5089997;28;20059;-57
2022/12/07 06:14:01;;;;;;;38.80;14.55;;;3.00;99.90;;;;;;5091436;28;20484;-56
2022/12/07 06:16:28;;;;;;;17.75;8.88;;;3.10;99.90;;;;;;5090939;28;20047;-59
2022/12/07 06:18:55;;;;;;;29.40;14.13;;;3.00;99.90;;;;;;5064357;28;20045;-58
2022/12/07 06:21:21;;;;;;;26.15;11.93;;;3.00;99.90;;;;;;5090593;28;20047;-57
2022/12/07 06:23:48;;;;;;;21.65;11.15;;;3.00;99.90;;;;;;5087105;28;20101;-57
2022/12/07 06:26:15;;;;;;;24.63;12.48;;;3.00;99.90;;;;;;5091929;28;20105;-58
2022/12/07 06:28:42;;;;;;;21.02;11.48;;;3.00;99.90;;;;;;5072124;28;20071;-58
2022/12/07 06:31:08;;;;;;;17.83;8.35;;;3.10;99.90;;;;;;5091122;28;20557;-59
2022/12/07 06:33:41;;;;;;;31.70;12.25;;;3.10;99.90;;;;;;5092564;28;20097;-58
2022/12/07 06:36:08;;;;;;;28.80;13.35;;;3.10;99.90;;;;;;5100115;28;20679;-59
2022/12/07 06:38:35;;;;;;;25.85;12.10;;;3.10;99.90;;;;;;5090510;28;20075;-58
2022/12/07 06:41:02;;;;;;;28.50;12.48;;;3.10;99.90;;;;;;5097754;28;20118;-58
2022/12/07 06:43:29;;;;;;;27.50;12.25;;;3.10;99.90;;;;;;5091981;28;20089;-59
2022/12/07 06:45:56;;;;;;;24.83;11.52;;;3.00;99.90;;;;;;5075058;28;20037;-58
2022/12/07 06:48:23;;;;;;;23.95;11.65;;;3.00;99.90;;;;;;5071271;28;20040;-59
2022/12/07 06:50:50;;;;;;;25.67;11.75;;;3.10;99.90;;;;;;5102153;28;20051;-59
2022/12/07 06:53:21;;;;;;;24.92;11.70;;;3.10;99.90;;;;;;5110720;28;20043;-56
2022/12/07 06:55:48;;;;;;;;;;;3.00;99.90;;;;;;5116033;28;20058;-58
2022/12/07 06:58:15;;;;;;;21.85;10.60;;;3.00;99.90;;;;;;5105901;28;19920;-58
2022/12/07 07:00:41;;;;;;;16.05;7.63;;;3.00;99.90;;;;;;5086330;28;20079;-58
2022/12/07 07:03:08;;;;;;;24.08;11.35;;;3.00;99.90;;;;;;5094844;28;20081;-59
2022/12/07 07:05:35;;;;;;;22.52;10.98;;;3.10;99.90;;;;;;5107282;27;20540;-59
2022/12/07 07:08:03;;;;;;;21.40;10.95;;;3.00;99.90;;;;;;5113653;28;20485;-59
2022/12/07 07:10:48;;;;;;;22.38;12.52;;;3.00;99.90;;;;;;5114005;28;20564;-58
2022/12/07 07:13:15;;;;;;;28.20;11.85;;;3.00;99.90;;;;;;5109287;28;20081;-58
2022/12/07 07:15:41;;;;;;;24.00;11.95;;;3.00;99.90;;;;;;5083107;28;20036;-58
2022/12/07 07:18:08;;;;;;;26.35;12.18;;;3.00;99.90;;;;;;5093083;28;20048;-59
2022/12/07 07:20:37;;;;;;;23.02;11.45;;;2.90;99.90;;;;;;5096805;28;20488;-59
2022/12/07 07:23:04;;;;;;;24.75;11.23;;;2.90;99.90;;;;;;5114583;28;20044;-58
2022/12/07 07:25:31;;;;;;;26.30;12.32;;;2.90;99.90;;;;;;5115034;28;20376;-59
2022/12/07 07:27:58;;;;;;;29.67;13.43;;;2.90;99.90;;;;;;5115250;28;20404;-59
2022/12/07 07:30:25;;;;;;;29.90;12.77;;;2.80;99.90;;;;;;5093819;28;20483;-58
2022/12/07 07:32:57;;;;;;;30.42;13.23;;;2.80;99.90;;;;;;5089739;28;20040;-59
2022/12/07 07:35:25;;;;;;;25.83;12.60;;;2.80;99.90;;;;;;5094870;28;20067;-59
2022/12/07 07:37:52;;;;;;;23.60;11.52;;;2.80;99.90;;;;;;5098877;28;20092;-59
2022/12/07 07:40:19;;;;;;;25.90;12.52;;;2.90;99.90;;;;;;5114529;28;20056;-59
2022/12/07 07:42:49;;;;;;;21.67;8.80;;;2.80;99.90;;;;;;5113903;28;20084;-58
2022/12/07 07:45:17;;;;;;;28.17;13.93;;;2.90;99.90;;;;;;5111866;28;20039;-59
2022/12/07 07:47:43;;;;;;;26.50;11.77;;;2.90;99.90;;;;;;5081744;28;20133;-58
2022/12/07 07:50:10;;;;;;;24.58;12.93;;;2.80;99.90;;;;;;5094239;28;20039;-58
2022/12/07 07:52:37;;;;;;;24.77;12.15;;;2.80;99.90;;;;;;5099724;28;20093;-58
2022/12/07 07:55:05;;;;;;;25.58;12.13;;;2.80;99.90;;;;;;5093854;28;20074;-59
2022/12/07 07:57:31;;;;;;;26.75;13.25;;;2.80;99.90;;;;;;5081601;28;20166;-57
2022/12/07 07:59:58;;;;;;;28.33;12.43;;;2.90;99.90;;;;;;5082072;28;20035;-59
2022/12/07 08:02:25;;;;;;;30.02;14.18;;;2.80;99.90;;;;;;5093665;28;20036;-58
2022/12/07 08:04:52;;;;;;;31.70;14.18;;;2.80;99.90;;;;;;5099432;28;20032;-58
2022/12/07 08:07:19;;;;;;;26.60;14.63;;;2.80;99.90;;;;;;5128922;22;20036;-61
2022/12/07 08:09:46;;;;;;;32.33;15.50;;;2.80;99.90;;;;;;5085238;28;20033;-61
2022/12/07 08:12:13;;;;;;;30.98;15.75;;;2.80;99.90;;;;;;5110427;28;20089;-61
2022/12/07 08:14:41;;;;;;;41.97;18.20;;;2.80;99.90;;;;;;5081911;28;20048;-61
2022/12/07 08:17:07;;;;;;;32.15;15.88;;;2.80;99.90;;;;;;5078777;28;20075;-61
2022/12/07 08:19:34;;;;;;;20.92;9.73;;;2.80;99.90;;;;;;5053387;28;20069;-61
2022/12/07 08:22:01;;;;;;;10.75;5.63;;;2.80;99.90;;;;;;5054576;28;20079;-61
2022/12/07 08:24:28;;;;;;;15.70;7.10;;;2.60;99.90;;;;;;5073257;28;20074;-60
2022/12/07 08:26:55;;;;;;;6.30;3.80;;;2.50;99.90;;;;;;5073204;28;20045;-60
2022/12/07 08:29:22;;;;;;;11.15;5.43;;;2.30;99.90;;;;;;5070396;28;20072;-60
2022/12/07 08:31:48;;;;;;;10.10;5.65;;;2.20;99.90;;;;;;5072505;28;20060;-60
2022/12/07 08:34:15;;;;;;;9.00;4.50;;;2.10;99.90;;;;;;5072624;28;20068;-61
2022/12/07 08:36:42;;;;;;;8.20;4.40;;;2.10;99.90;;;;;;5072967;28;20040;-61
2022/12/07 08:39:08;;;;;;;14.35;6.43;;;2.00;99.90;;;;;;5071629;28;20049;-61
2022/12/07 08:41:55;;;;;;;16.63;8.50;;;2.00;99.90;;;;;;5072283;28;20131;-60
2022/12/07 08:44:22;;;;;;;14.75;7.45;;;2.00;99.90;;;;;;5073224;28;20086;-60
2022/12/07 08:46:58;;;;;;;14.30;7.32;;;2.10;99.90;;;;;;5072837;28;20075;-61
2022/12/07 08:49:40;;;;;;;17.25;7.63;;;2.00;99.90;;;;;;5070859;28;20045;-60
2022/12/07 08:52:07;;;;;;;16.25;8.02;;;2.10;99.90;;;;;;5071710;28;20516;-61
2022/12/07 08:54:36;;;;;;;16.05;8.05;;;2.20;99.90;;;;;;5072473;28;20036;-60
2022/12/07 08:57:05;;;;;;;13.02;7.07;;;2.20;99.90;;;;;;5072541;28;20381;-61
2022/12/07 08:59:34;;;;;;;16.58;8.07;;;2.20;99.90;;;;;;5053319;28;20086;-60
2022/12/07 09:02:01;;;;;;;17.95;7.78;;;2.30;99.90;;;;;;5070113;28;20052;-61
2022/12/07 09:04:28;;;;;;;19.20;7.97;;;2.30;99.90;;;;;;5072559;28;20056;-60
2022/12/07 09:06:55;;;;;;;15.85;7.90;;;2.40;99.90;;;;;;5070474;28;20511;-61
2022/12/07 09:09:22;;;;;;;17.65;8.88;;;2.30;99.90;;;;;;5072050;28;20102;-61
2022/12/07 09:11:48;;;;;;;15.93;8.25;;;2.30;99.90;;;;;;5070590;28;20082;-61
2022/12/07 09:14:17;;;;;;;19.83;9.40;;;2.30;99.90;;;;;;5072065;28;20036;-61
2022/12/07 09:16:43;;;;;;;21.85;9.23;;;2.40;99.90;;;;;;5070382;28;20098;-61
2022/12/07 09:19:10;;;;;;;17.20;7.55;;;2.40;99.90;;;;;;5072123;28;20057;-61
2022/12/07 09:21:37;;;;;;;13.23;6.55;;;2.40;99.90;;;;;;5068848;28;20385;-60
2022/12/07 09:24:04;;;;;;;18.20;9.50;;;2.50;99.90;;;;;;5072199;28;20090;-60
2022/12/07 09:26:30;;;;;;;18.98;9.60;;;2.50;99.90;;;;;;5070623;28;20040;-61
2022/12/07 09:28:57;;;;;;;24.13;11.10;;;2.50;99.90;;;;;;5071841;28;20040;-60
2022/12/07 09:31:24;;;;;;;17.98;10.02;;;2.60;99.90;;;;;;5070120;28;20036;-61
2022/12/07 09:34:00;;;;;;;19.02;9.40;;;2.70;99.90;;;;;;5071947;28;20127;-61
2022/12/07 09:36:28;;;;;;;23.85;11.25;;;2.60;99.90;;;;;;5070455;28;20055;-61
2022/12/07 09:38:55;;;;;;;19.92;9.68;;;2.70;99.90;;;;;;5069941;28;20087;-61
2022/12/07 09:41:23;;;;;;;14.93;7.25;;;2.80;99.90;;;;;;5070516;28;20171;-60
2022/12/07 09:43:50;;;;;;;21.23;10.27;;;2.80;99.90;;;;;;5071385;28;20097;-61
2022/12/07 09:46:20;;;;;;;28.98;12.02;;;2.80;99.90;;;;;;5070945;28;20106;-61
2022/12/07 09:48:48;;;;;;;24.23;11.98;;;2.90;99.90;;;;;;5071394;28;20047;-59
2022/12/07 09:51:23;;;;;;;22.80;11.75;;;3.00;99.90;;;;;;5069676;28;20036;-60
2022/12/07 09:53:54;;;;;;;21.40;10.40;;;3.00;99.90;;;;;;5069926;28;20049;-60
2022/12/07 09:56:22;;;;;;;21.67;10.57;;;3.10;99.90;;;;;;5071369;28;20094;-61
2022/12/07 09:58:51;;;;;;;20.75;11.15;;;3.10;99.90;;;;;;5070137;28;20037;-60
2022/12/07 10:01:20;;;;;;;22.65;11.13;;;3.20;99.90;;;;;;5071480;28;20044;-61
2022/12/07 10:03:49;;;;;;;18.48;10.73;;;4.10;99.90;;;;;;5069210;28;20048;-61
2022/12/07 10:06:16;;;;;;;19.42;11.00;;;3.20;99.90;;;;;;5071367;28;20048;-61
2022/12/07 10:08:43;;;;;;;20.05;10.73;;;3.20;99.90;;;;;;5069566;28;20062;-61
2022/12/07 10:11:11;;;;;;;22.30;10.38;;;3.20;99.90;;;;;;5069695;28;20036;-61
2022/12/07 10:13:40;;;;;;;21.20;10.40;;;3.30;99.90;;;;;;5070654;28;20422;-61
2022/12/07 10:16:40;;;;;;;22.92;10.07;;;3.30;99.90;;;;;;5070839;28;20443;-61
2022/12/07 10:19:18;;;;;;;16.10;8.65;;;3.40;99.90;;;;;;5068895;28;20068;-60
2022/12/07 10:22:08;;;;;;;17.27;9.88;;;3.40;99.90;;;;;;5070625;28;20486;-61
2022/12/07 10:24:39;;;;;;;20.50;9.55;;;3.50;99.90;;;;;;5071230;28;20125;-60
2022/12/07 10:27:29;;;;;;;15.80;8.55;;;3.50;99.90;;;;;;5069967;28;20094;-60
2022/12/07 10:29:58;;;;;;;15.93;7.95;;;3.60;99.90;;;;;;5067485;28;20045;-60
2022/12/07 10:32:35;;;;;;;16.70;8.55;;;3.60;99.90;;;;;;5070592;28;20090;-61
2022/12/07 10:35:26;;;;;;;17.20;8.60;;;3.70;99.90;;;;;;5067798;28;20117;-61
2022/12/07 10:37:54;;;;;;;15.52;8.15;;;3.80;99.90;;;;;;5070779;28;20102;-60
2022/12/07 10:40:35;;;;;;;13.80;6.85;;;3.90;99.90;;;;;;5069906;28;20075;-60
2022/12/07 10:43:32;;;;;;;14.43;6.65;;;4.00;99.90;;;;;;5070732;28;20079;-61
2022/12/07 10:46:21;;;;;;;13.13;6.85;;;4.00;99.90;;;;;;5066684;28;20083;-61
2022/12/07 10:49:15;;;;;;;12.00;7.18;;;4.00;99.90;;;;;;5070950;28;20052;-61
2022/12/07 10:51:49;;;;;;;12.93;6.75;;;3.90;99.90;;;;;;5068905;28;20226;-61
2022/12/07 10:54:46;;;;;;;22.42;10.85;;;3.60;99.90;;;;;;5070826;28;20048;-61
2022/12/07 10:57:39;;;;;;;23.92;11.00;;;3.60;99.90;;;;;;5070962;28;20048;-60
2022/12/07 11:00:30;;;;;;;25.48;12.20;;;3.50;99.90;;;;;;5069167;28;20048;-61
2022/12/07 11:03:15;;;;;;;21.42;11.27;;;3.60;99.90;;;;;;5070458;28;20063;-61
2022/12/07 11:05:48;;;;;;;26.45;11.52;;;3.70;99.90;;;;;;5071056;28;20068;-61
2022/12/07 11:08:19;;;;;;;25.15;11.98;;;3.70;99.90;;;;;;5069423;28;20102;-61
2022/12/07 11:10:57;;;;;;;22.55;10.57;;;3.70;99.90;;;;;;5070861;28;20052;-61
2022/12/07 11:13:52;;;;;;;19.65;9.82;;;3.60;99.90;;;;;;5069426;28;20079;-60
2022/12/07 11:16:37;;;;;;;18.40;10.18;;;3.60;99.90;;;;;;5070514;28;20508;-60
2022/12/07 11:19:18;;;;;;;20.75;10.90;;;3.40;99.90;;;;;;5068778;28;20409;-61
2022/12/07 11:22:08;;;;;;;29.20;12.93;;;3.40;99.90;;;;;;5070353;28;20037;-61
2022/12/07 11:24:46;;;;;;;31.42;14.10;;;3.40;99.90;;;;;;5070600;28;20076;-60
2022/12/07 11:27:32;;;;;;;;;;;3.50;99.90;;;;;;5069029;28;20076;-60
2022/12/07 11:30:21;;;;;;;17.40;8.38;;;3.70;99.90;;;;;;5070636;28;19921;-60
2022/12/07 11:32:57;;;;;;;16.85;8.75;;;3.80;99.90;;;;;;5070251;28;20045;-60
2022/12/07 11:35:49;;;;;;;19.40;10.07;;;3.70;99.90;;;;;;5059670;28;20040;-60
2022/12/07 11:38:19;;;;;;;17.20;9.38;;;3.70;99.90;;;;;;5068393;28;20040;-61
2022/12/07 11:41:12;;;;;;;16.77;9.27;;;3.70;99.90;;;;;;5071343;28;20052;-60
2022/12/07 11:44:02;;;;;;;20.33;10.13;;;3.70;99.90;;;;;;5073209;28;20047;-61
2022/12/07 11:46:47;;;;;;;17.35;7.97;;;3.80;99.90;;;;;;5073274;28;20036;-61
2022/12/07 11:49:51;;;;;;;19.33;8.40;;;3.80;99.90;;;;;;5072411;28;20063;-60
2022/12/07 11:52:27;;;;;;;20.67;9.02;;;3.70;99.90;;;;;;5070991;28;20079;-61
2022/12/07 11:54:54;;;;;;;29.35;12.70;;;3.70;99.90;;;;;;5072593;28;20135;-61
2022/12/07 11:57:40;;;;;;;40.72;16.83;;;3.60;99.90;;;;;;5073553;28;20052;-61
2022/12/07 12:00:14;;;;;;;32.70;14.38;;;3.70;99.90;;;;;;5072162;28;20040;-61
2022/12/07 12:02:52;;;;;;;24.48;11.75;;;3.70;99.90;;;;;;5073183;28;20044;-60
2022/12/07 12:05:22;;;;;;;31.55;13.82;;;3.70;99.90;;;;;;5073634;28;20067;-61
2022/12/07 12:08:13;;;;;;;29.98;13.68;;;3.80;99.90;;;;;;5064348;28;20090;-61
2022/12/07 12:11:27;;;;;;;15.90;7.90;;;3.90;99.90;;;;;;5070024;28;20055;-61
2022/12/07 12:14:03;;;;;;;15.38;7.93;;;3.90;99.90;;;;;;5073352;28;20040;-61
2022/12/07 12:17:19;;;;;;;21.33;9.63;;;3.80;99.90;;;;;;5072082;28;20408;-60
2022/12/07 12:20:23;;;;;;;21.95;10.00;;;3.60;99.90;;;;;;5072915;28;20066;-60
2022/12/07 12:22:55;;;;;;;17.23;8.55;;;3.60;99.90;;;;;;5072685;28;20033;-60
2022/12/07 12:25:31;;;;;;;15.85;7.45;;;3.70;99.90;;;;;;5073361;28;20524;-60
2022/12/07 12:27:59;;;;;;;32.17;12.13;;;3.60;99.90;;;;;;5071743;28;20051;-60
2022/12/07 12:30:37;;;;;;;17.70;8.90;;;3.70;99.90;;;;;;5073028;28;20258;-60
2022/12/07 12:33:05;;;;;;;;;;;3.80;99.90;;;;;;5071715;28;20106;-61
2022/12/07 12:35:35;;;;;;;10.55;5.90;;;3.80;99.90;;;;;;5072922;28;19974;-60
2022/12/07 12:38:26;;;;;;;12.05;6.32;;;3.70;99.90;;;;;;5071534;28;20123;-61
2022/12/07 12:40:55;;;;;;;13.07;6.93;;;3.80;99.90;;;;;;5073237;28;20051;-61
2022/12/07 12:43:52;;;;;;;9.80;5.63;;;4.00;99.90;;;;;;5071536;28;20094;-61
2022/12/07 12:46:33;;;;;;;12.13;6.80;;;4.00;99.90;;;;;;5071543;28;20127;-60
2022/12/07 12:49:21;;;;;;;12.43;6.30;;;4.10;99.90;;;;;;5072502;28;20064;-60
2022/12/07 12:51:47;;;;;;;12.10;6.20;;;4.10;99.90;;;;;;5071196;28;20128;-61
2022/12/07 12:54:25;;;;;;;14.57;7.45;;;4.30;99.90;;;;;;5072637;28;20330;-61
2022/12/07 12:57:20;;;;;;;13.95;6.60;;;4.40;99.90;;;;;;5072492;28;20037;-61
2022/12/07 12:59:52;;;;;;;18.58;8.40;;;4.40;99.90;;;;;;5072668;28;20106;-61
2022/12/07 13:02:31;;;;;;;15.13;7.70;;;4.40;99.90;;;;;;5070974;28;20052;-61
2022/12/07 13:05:05;;;;;;;13.20;7.10;;;4.40;99.90;;;;;;5070509;28;20044;-61
2022/12/07 13:07:46;;;;;;;15.30;7.93;;;4.30;99.90;;;;;;5072126;28;20130;-61
2022/12/07 13:10:32;;;;;;;14.93;7.90;;;4.40;99.90;;;;;;5054162;28;20072;-61
2022/12/07 13:13:11;;;;;;;13.07;6.40;;;4.40;99.90;;;;;;5070825;28;20044;-60
2022/12/07 13:15:46;;;;;;;10.43;5.90;;;4.50;99.90;;;;;;5065730;28;20080;-61
2022/12/07 13:18:27;;;;;;;9.45;5.65;;;4.50;99.90;;;;;;5072398;28;20083;-60
2022/12/07 13:21:09;;;;;;;13.10;6.53;;;4.60;99.90;;;;;;5070628;28;20045;-61
2022/12/07 13:23:36;;;;;;;15.80;8.10;;;4.70;99.90;;;;;;5071535;28;20099;-61
2022/12/07 13:26:40;;;;;;;13.23;7.93;;;4.50;99.90;;;;;;5072264;28;20093;-60